KLOU/LOU METAR and TAF weather

Enter ICAO airport designator
Station Type Date Time Source
KLOU METAR 2022/10/01 06:53 UTC NOAA

KLOU 010653Z AUTO 34003KT 10SM CLR 11/07 A3002 RMK AO2 SLP162 T01110072


Station Type Date Time Source
KLOU Decoded METAR 2022/10/01 06:53 UTC NOAA

BOWMAN FIELD, KY, United States (KLOU) 38-14N 085-40W 164M
Oct 01, 2022 - 02:53 AM EDT / 2022.10.01 0653 UTC
Wind: from the NNW (340 degrees) at 3 MPH (3 KT):0
Visibility: 10 mile(s):0
Sky conditions: clear
Temperature: 52.0 F (11.1 C)
Dew Point: 45.0 F (7.2 C)
Relative Humidity: 76%
Pressure (altimeter): 30.02 in. Hg (1016 hPa)
ob: KLOU 010653Z AUTO 34003KT 10SM CLR 11/07 A3002 RMK AO2 SLP162 T01110072
cycle: 7

Station Type Date Time Source
KLOU TAF UTC NOAA

Error!

Example: see airport list